createdAt,value
2019-02-09T00:01:08.401Z,63.10
2019-02-09T00:03:37.738Z,63.20
2019-02-09T00:06:07.470Z,63.30
2019-02-09T00:08:36.776Z,63.40
2019-02-09T00:11:07.905Z,63.70
2019-02-09T00:13:37.122Z,63.80
2019-02-09T00:16:06.804Z,63.90
2019-02-09T00:18:36.147Z,63.80
2019-02-09T00:21:05.777Z,63.90
2019-02-09T00:23:35.085Z,63.70
2019-02-09T00:26:04.516Z,64.10
2019-02-09T00:28:33.850Z,63.40
2019-02-09T00:31:02.978Z,63.60
2019-02-09T00:33:32.174Z,63.70
2019-02-09T00:36:01.414Z,63.70
2019-02-09T00:38:30.577Z,63.70
2019-02-09T00:40:59.774Z,63.70
2019-02-09T00:43:29.035Z,63.80
2019-02-09T00:45:58.182Z,63.70
2019-02-09T00:48:27.377Z,63.80
2019-02-09T00:50:56.659Z,63.70
2019-02-09T00:53:25.857Z,63.90
2019-02-09T00:55:55.091Z,63.40
2019-02-09T00:58:24.278Z,63.90
2019-02-09T01:00:53.479Z,63.90
2019-02-09T01:03:22.737Z,63.90
2019-02-09T01:05:51.913Z,63.70
2019-02-09T01:08:21.127Z,63.80
2019-02-09T01:10:50.881Z,64.00
2019-02-09T01:13:20.147Z,64.30
2019-02-09T01:15:49.344Z,64.50
2019-02-09T01:18:18.443Z,64.50
2019-02-09T01:20:47.569Z,64.40
2019-02-09T01:23:16.848Z,64.40
2019-02-09T01:25:46.193Z,64.40
2019-02-09T01:28:15.984Z,64.40
2019-02-09T01:30:45.175Z,64.50
2019-02-09T01:33:14.354Z,64.60
2019-02-09T01:35:43.586Z,64.50
2019-02-09T01:38:13.044Z,64.40
2019-02-09T01:40:42.184Z,64.50
2019-02-09T01:43:11.357Z,64.50
2019-02-09T01:45:40.735Z,64.50
2019-02-09T01:48:09.865Z,65.00
2019-02-09T01:50:39.118Z,64.90
2019-02-09T01:53:08.339Z,64.60
2019-02-09T01:55:37.476Z,64.50
2019-02-09T01:58:06.635Z,64.20
2019-02-09T02:00:37.297Z,64.30
2019-02-09T02:03:06.734Z,64.30
2019-02-09T02:05:36.082Z,64.00
2019-02-09T02:08:05.664Z,63.40
2019-02-09T02:10:37.746Z,63.60
2019-02-09T02:13:09.053Z,63.60
2019-02-09T02:15:39.130Z,63.90
2019-02-09T02:18:09.062Z,63.80
2019-02-09T02:20:40.142Z,63.20
2019-02-09T02:23:09.275Z,63.40
2019-02-09T02:25:38.487Z,63.90
2019-02-09T02:28:08.129Z,64.10
2019-02-09T02:30:37.946Z,64.00
2019-02-09T02:33:08.030Z,63.70
2019-02-09T02:35:37.639Z,63.20
2019-02-09T02:38:06.922Z,62.80
2019-02-09T02:40:37.145Z,62.70
2019-02-09T02:43:06.247Z,62.50
2019-02-09T02:45:35.439Z,62.50
2019-02-09T02:48:06.510Z,62.70
2019-02-09T02:50:36.090Z,62.90
2019-02-09T02:53:05.197Z,62.60
2019-02-09T02:55:34.426Z,63.50
2019-02-09T02:58:03.586Z,63.10
2019-02-09T03:00:33.163Z,62.80
2019-02-09T03:03:02.719Z,63.10
2019-02-09T03:05:31.900Z,63.30
2019-02-09T03:08:01.317Z,63.30
2019-02-09T03:10:30.570Z,62.60
2019-02-09T03:12:59.722Z,62.30
2019-02-09T03:15:29.961Z,62.60
2019-02-09T03:17:59.202Z,63.00
2019-02-09T03:20:28.420Z,63.10
2019-02-09T03:22:57.548Z,63.00
2019-02-09T03:25:28.638Z,63.10
2019-02-09T03:27:57.822Z,63.10
2019-02-09T03:30:27.250Z,62.50
2019-02-09T03:32:56.498Z,62.50
2019-02-09T03:35:25.938Z,61.80
2019-02-09T03:37:55.104Z,62.20
2019-02-09T03:40:24.976Z,62.20
2019-02-09T03:42:54.403Z,62.40
2019-02-09T03:45:28.380Z,62.60
2019-02-09T03:47:57.609Z,63.10
2019-02-09T03:50:28.729Z,63.30
2019-02-09T03:52:58.261Z,63.30
2019-02-09T03:55:27.427Z,62.80
2019-02-09T03:57:56.545Z,63.40
2019-02-09T04:00:27.238Z,63.90
2019-02-09T04:02:56.464Z,64.00
2019-02-09T04:05:25.737Z,64.00
2019-02-09T04:07:55.092Z,63.50
2019-02-09T04:10:25.834Z,63.60
2019-02-09T04:12:55.237Z,63.70
2019-02-09T04:21:35.914Z,64.30
2019-02-09T04:24:58.162Z,64.50
2019-02-09T04:31:07.581Z,64.70
2019-02-09T04:34:29.880Z,65.10
2019-02-09T04:40:39.210Z,65.00
2019-02-09T04:44:01.699Z,64.30
2019-02-09T04:50:11.377Z,64.80
2019-02-09T04:53:33.842Z,64.80
2019-02-09T04:59:43.122Z,64.60
2019-02-09T05:03:05.464Z,64.40
2019-02-09T05:09:14.967Z,64.50
2019-02-09T05:15:24.353Z,64.60
2019-02-09T05:17:53.709Z,64.80
2019-02-09T05:20:24.845Z,64.70
2019-02-09T05:22:54.648Z,64.70
2019-02-09T05:25:23.997Z,64.80
2019-02-09T05:27:53.332Z,64.90
2019-02-09T05:30:29.003Z,64.90
2019-02-09T05:33:00.471Z,65.00
2019-02-09T05:35:29.207Z,65.30
2019-02-09T05:37:58.633Z,65.30
2019-02-09T05:40:28.866Z,65.40
2019-02-09T05:42:58.073Z,65.50
2019-02-09T05:45:28.287Z,65.60
2019-02-09T05:47:57.501Z,65.80
2019-02-09T05:50:26.837Z,66.00
2019-02-09T05:52:55.930Z,66.20
2019-02-09T05:55:25.123Z,65.90
2019-02-09T05:57:54.302Z,66.10
2019-02-09T06:00:35.717Z,66.50
2019-02-09T06:03:05.894Z,66.60
2019-02-09T06:05:35.075Z,67.00
2019-02-09T06:08:04.780Z,66.80
2019-02-09T06:10:34.220Z,66.90
2019-02-09T06:13:03.462Z,67.00
2019-02-09T06:15:32.662Z,67.00
2019-02-09T06:18:01.971Z,67.10
2019-02-09T06:20:31.659Z,67.30
2019-02-09T06:23:00.855Z,67.50
2019-02-09T06:25:29.949Z,67.70
2019-02-09T06:27:59.112Z,67.70
2019-02-09T06:30:29.364Z,67.70
2019-02-09T06:32:58.608Z,67.90
2019-02-09T06:35:27.916Z,67.80
2019-02-09T06:37:57.505Z,68.00
2019-02-09T06:40:26.721Z,68.10
2019-02-09T06:42:56.899Z,68.20
2019-02-09T06:45:26.134Z,68.10
2019-02-09T06:48:16.181Z,67.80
2019-02-09T06:50:45.382Z,67.60
2019-02-09T06:53:14.595Z,67.60
2019-02-09T06:55:43.811Z,67.80
2019-02-09T06:58:13.105Z,67.80
2019-02-09T07:00:42.452Z,67.80
2019-02-09T07:03:11.571Z,67.80
2019-02-09T07:05:40.726Z,68.50
2019-02-09T07:08:10.086Z,68.10
2019-02-09T07:10:39.393Z,67.90
2019-02-09T07:13:08.605Z,67.90
2019-02-09T07:15:38.266Z,67.70
2019-02-09T07:18:07.430Z,67.80
2019-02-09T07:20:36.776Z,67.70
2019-02-09T07:23:06.507Z,67.80
2019-02-09T07:25:36.067Z,67.50
2019-02-09T07:28:05.803Z,67.40
2019-02-09T07:30:35.405Z,67.60
2019-02-09T07:33:05.839Z,67.50
2019-02-09T07:35:35.091Z,67.90
2019-02-09T07:38:04.351Z,67.70
2019-02-09T07:40:33.655Z,66.80
2019-02-09T07:43:02.971Z,66.40
2019-02-09T07:45:32.306Z,65.50
2019-02-09T07:48:01.454Z,65.00
2019-02-09T07:50:30.836Z,64.80
2019-02-09T07:53:00.656Z,63.50
2019-02-09T07:55:29.900Z,62.70
2019-02-09T07:57:59.155Z,63.00
2019-02-09T08:00:29.180Z,62.10
2019-02-09T08:02:58.408Z,61.70
2019-02-09T08:05:29.411Z,60.40
2019-02-09T08:07:58.722Z,59.80
2019-02-09T08:10:29.687Z,59.20
2019-02-09T08:12:59.186Z,58.80
2019-02-09T08:15:29.595Z,58.30
2019-02-09T08:17:59.319Z,58.40
2019-02-09T08:20:29.064Z,57.80
2019-02-09T08:22:59.933Z,58.90
2019-02-09T08:25:30.951Z,58.50
2019-02-09T08:28:01.739Z,58.30
2019-02-09T08:30:36.257Z,57.40
2019-02-09T08:33:05.890Z,57.40
2019-02-09T08:35:35.249Z,57.20
2019-02-09T08:38:04.785Z,57.20
2019-02-09T08:40:34.207Z,57.80
2019-02-09T08:43:03.345Z,56.30
2019-02-09T08:45:32.539Z,56.30
2019-02-09T08:48:01.862Z,55.30
2019-02-09T08:50:33.674Z,54.90
2019-02-09T08:53:02.901Z,54.60
2019-02-09T08:55:32.106Z,55.10
2019-02-09T08:58:01.448Z,55.00
2019-02-09T09:00:32.036Z,54.70
2019-02-09T09:03:01.386Z,55.00
2019-02-09T09:05:30.824Z,54.40
2019-02-09T09:08:00.307Z,54.40
2019-02-09T09:10:29.737Z,54.70
2019-02-09T09:12:59.062Z,56.00
2019-02-09T09:15:31.185Z,56.70
2019-02-09T09:18:00.446Z,57.60
2019-02-09T09:20:32.701Z,56.90
2019-02-09T09:23:01.952Z,56.90
2019-02-09T09:25:31.212Z,56.30
2019-02-09T09:28:00.540Z,56.30
2019-02-09T09:30:30.012Z,56.60
2019-02-09T09:32:59.311Z,56.80
2019-02-09T09:35:28.651Z,57.00
2019-02-09T09:37:57.955Z,58.40
2019-02-09T09:40:32.462Z,58.70
2019-02-09T09:43:01.811Z,58.90
2019-02-09T09:45:32.937Z,58.10
2019-02-09T09:48:02.533Z,58.20
2019-02-09T09:50:31.839Z,58.10
2019-02-09T09:53:01.122Z,57.10
2019-02-09T09:55:30.419Z,57.00
2019-02-09T09:57:59.749Z,56.10
2019-02-09T10:00:29.081Z,55.90
2019-02-09T10:02:58.409Z,55.50
2019-02-09T10:05:27.826Z,55.70
2019-02-09T10:07:57.193Z,55.60
2019-02-09T10:10:27.359Z,54.80
2019-02-09T10:12:56.639Z,54.80
2019-02-09T10:15:26.434Z,54.90
2019-02-09T10:17:56.879Z,54.30
2019-02-09T10:20:26.464Z,54.20
2019-02-09T10:22:55.788Z,53.80
2019-02-09T10:25:25.003Z,53.90
2019-02-09T10:27:54.704Z,53.20
2019-02-09T10:30:25.641Z,52.40
2019-02-09T10:32:54.949Z,52.70
2019-02-09T10:35:24.491Z,53.00
2019-02-09T10:37:53.825Z,53.30
2019-02-09T10:40:27.657Z,53.40
2019-02-09T10:43:00.694Z,53.20
2019-02-09T10:45:30.273Z,52.80
2019-02-09T10:48:00.091Z,53.00
2019-02-09T10:50:31.262Z,53.10
2019-02-09T10:53:00.468Z,52.40
2019-02-09T10:55:29.753Z,51.80
2019-02-09T10:57:58.894Z,51.60
2019-02-09T11:00:30.865Z,51.00
2019-02-09T11:03:00.055Z,50.30
2019-02-09T11:05:29.360Z,50.30
2019-02-09T11:07:58.673Z,50.40
2019-02-09T11:10:28.043Z,49.80
2019-02-09T11:12:58.401Z,50.60
2019-02-09T11:15:27.643Z,50.80
2019-02-09T11:17:56.815Z,49.90
2019-02-09T11:20:26.183Z,49.90
2019-02-09T11:22:55.560Z,49.60
2019-02-09T11:25:24.926Z,49.70
2019-02-09T11:27:54.199Z,49.90
2019-02-09T11:30:23.530Z,48.80
2019-02-09T11:33:00.538Z,49.00
2019-02-09T11:35:23.819Z,49.10
2019-02-09T11:37:53.158Z,49.20
2019-02-09T11:40:22.739Z,48.90
2019-02-09T11:42:52.313Z,48.60
2019-02-09T11:45:23.797Z,49.00
2019-02-09T11:47:52.930Z,48.60
2019-02-09T11:50:22.206Z,49.50
2019-02-09T11:52:51.455Z,50.30
2019-02-09T11:55:20.972Z,49.80
2019-02-09T11:57:50.515Z,50.50
2019-02-09T12:00:25.127Z,50.10
2019-02-09T12:03:02.142Z,50.00
2019-02-09T12:05:25.459Z,50.40
2019-02-09T12:07:54.692Z,50.30
2019-02-09T12:10:24.005Z,50.60
2019-02-09T12:12:53.246Z,51.20
2019-02-09T12:15:27.440Z,51.30
2019-02-09T12:17:56.606Z,51.20
2019-02-09T12:20:25.837Z,51.20
2019-02-09T12:22:55.044Z,51.60
2019-02-09T12:25:26.658Z,51.60
2019-02-09T12:27:55.863Z,51.30
2019-02-09T12:30:26.960Z,51.40
2019-02-09T12:32:56.319Z,51.40
2019-02-09T12:35:25.629Z,51.00
2019-02-09T12:37:54.923Z,50.80
2019-02-09T12:40:28.654Z,50.70
2019-02-09T12:42:57.814Z,50.90
2019-02-09T12:45:27.609Z,51.20
2019-02-09T12:47:56.891Z,51.30
2019-02-09T12:50:26.221Z,51.00
2019-02-09T12:52:58.458Z,51.60
2019-02-09T12:55:28.172Z,51.40
2019-02-09T12:58:03.007Z,51.20
2019-02-09T13:00:33.704Z,51.20
2019-02-09T13:03:17.895Z,51.40
2019-02-09T13:05:47.088Z,51.10
2019-02-09T13:11:10.219Z,51.40
2019-02-09T13:13:51.468Z,51.80
2019-02-09T13:16:32.306Z,51.80
2019-02-09T13:19:12.979Z,51.80
2019-02-09T13:21:53.743Z,51.50
2019-02-09T13:24:34.642Z,51.10
2019-02-09T13:27:15.512Z,51.10
2019-02-09T13:29:56.087Z,51.30
2019-02-09T13:32:36.472Z,51.50
2019-02-09T13:35:17.227Z,51.80
2019-02-09T13:37:58.098Z,50.70
2019-02-09T13:40:38.887Z,51.00
2019-02-09T13:43:19.871Z,51.30
2019-02-09T13:46:00.963Z,50.90
2019-02-09T13:48:41.732Z,50.90
2019-02-09T13:51:10.988Z,49.60
2019-02-09T13:53:59.190Z,50.10
2019-02-09T13:56:47.466Z,50.60
2019-02-09T13:59:28.552Z,50.30
2019-02-09T14:01:57.736Z,50.30
2019-02-09T14:04:45.938Z,50.40
2019-02-09T14:07:34.161Z,50.20
2019-02-09T14:10:15.135Z,50.40
2019-02-09T14:12:55.939Z,49.90
2019-02-09T14:15:36.979Z,49.60
2019-02-09T14:18:16.449Z,49.00
2019-02-09T14:20:57.674Z,49.00
2019-02-09T14:23:39.146Z,49.10
2019-02-09T14:26:08.436Z,48.30
2019-02-09T14:28:56.728Z,48.90
2019-02-09T14:31:44.922Z,49.10
2019-02-09T14:34:26.255Z,48.50
2019-02-09T14:36:55.485Z,48.30
2019-02-09T14:39:43.786Z,48.40
2019-02-09T14:42:32.072Z,48.30
2019-02-09T14:45:12.779Z,49.10
2019-02-09T14:47:53.508Z,48.90
2019-02-09T14:50:34.322Z,48.90
2019-02-09T14:53:15.771Z,49.50
2019-02-09T14:55:57.062Z,49.50
2019-02-09T14:58:38.198Z,49.80
2019-02-09T15:01:18.764Z,49.90
2019-02-09T15:03:47.927Z,49.80
2019-02-09T15:06:36.234Z,50.00
2019-02-09T15:09:24.511Z,50.20
2019-02-09T15:12:05.002Z,50.40
2019-02-09T15:14:45.731Z,50.50
2019-02-09T15:17:29.800Z,50.60
2019-02-09T15:20:11.374Z,51.00
2019-02-09T15:22:52.212Z,51.10
2019-02-09T15:25:34.939Z,51.20
2019-02-09T15:28:16.478Z,51.30
2019-02-09T15:30:57.407Z,51.40
2019-02-09T15:33:38.299Z,51.30
2019-02-09T15:36:19.348Z,51.50
2019-02-09T15:39:00.347Z,51.60
2019-02-09T15:41:40.783Z,51.50
2019-02-09T15:44:20.468Z,51.50
2019-02-09T15:47:01.702Z,51.80
2019-02-09T15:49:42.655Z,51.70
2019-02-09T15:55:02.033Z,51.80
2019-02-09T15:57:42.793Z,52.30
2019-02-09T16:00:23.231Z,53.00
2019-02-09T16:03:03.788Z,53.20
2019-02-09T16:05:44.500Z,53.30
2019-02-09T16:08:25.319Z,53.50
2019-02-09T16:11:06.531Z,53.20
2019-02-09T16:13:46.980Z,53.40
2019-02-09T16:16:28.311Z,53.30
2019-02-09T16:19:09.050Z,53.40
2019-02-09T16:21:49.894Z,53.00
2019-02-09T16:24:30.710Z,53.60
2019-02-09T16:27:11.230Z,53.50
2019-02-09T16:29:51.743Z,53.10
2019-02-09T16:32:32.660Z,53.40
2019-02-09T16:35:13.153Z,53.60
2019-02-09T16:37:54.088Z,53.80
2019-02-09T16:40:35.003Z,54.30
2019-02-09T16:43:16.263Z,53.60
2019-02-09T16:45:56.760Z,53.50
2019-02-09T16:48:37.564Z,53.60
2019-02-09T16:51:18.461Z,53.60
2019-02-09T16:53:59.164Z,53.60
2019-02-09T16:56:39.918Z,53.60
2019-02-09T16:59:21.279Z,53.60
2019-02-09T17:02:02.295Z,53.70
2019-02-09T17:04:42.627Z,53.10
2019-02-09T17:07:23.367Z,53.50
2019-02-09T17:10:05.215Z,53.50
2019-02-09T17:12:46.307Z,53.40
2019-02-09T17:15:26.981Z,53.50
2019-02-09T17:18:07.783Z,53.40
2019-02-09T17:20:48.802Z,53.60
2019-02-09T17:23:29.344Z,54.10
2019-02-09T17:26:10.577Z,54.30
2019-02-09T17:28:51.124Z,54.40
2019-02-09T17:31:32.214Z,55.00
2019-02-09T17:34:12.983Z,55.30
2019-02-09T17:36:53.915Z,56.10
2019-02-09T17:39:34.390Z,56.10
2019-02-09T17:42:14.987Z,56.60
2019-02-09T17:44:55.692Z,56.70
2019-02-09T17:47:36.707Z,57.00
2019-02-09T17:50:17.270Z,57.30
2019-02-09T17:52:57.878Z,57.60
2019-02-09T17:58:17.671Z,57.90
2019-02-09T18:01:02.011Z,58.00
2019-02-09T18:03:43.299Z,58.00
2019-02-09T18:06:24.152Z,58.00
2019-02-09T18:09:04.826Z,58.30
2019-02-09T18:11:46.171Z,58.00
2019-02-09T18:14:26.932Z,58.30
2019-02-09T18:17:07.588Z,58.30
2019-02-09T18:19:49.046Z,58.20
2019-02-09T18:22:30.263Z,58.30
2019-02-09T18:25:10.938Z,58.50
2019-02-09T18:27:51.808Z,58.40
2019-02-09T18:30:32.605Z,58.40
2019-02-09T18:33:14.716Z,57.70
2019-02-09T18:35:55.449Z,57.90
2019-02-09T18:38:36.827Z,58.30
2019-02-09T18:41:17.779Z,58.50
2019-02-09T18:43:58.903Z,57.90
2019-02-09T18:46:39.686Z,58.40
2019-02-09T18:49:20.378Z,58.10
2019-02-09T18:52:01.197Z,57.80
2019-02-09T18:54:42.258Z,58.10
2019-02-09T18:57:22.680Z,58.00
2019-02-09T19:00:03.653Z,58.00
2019-02-09T19:02:44.795Z,58.10
2019-02-09T19:05:25.591Z,57.90
2019-02-09T19:08:06.802Z,58.00
2019-02-09T19:10:48.308Z,58.10
2019-02-09T19:13:30.086Z,58.20
2019-02-09T19:16:10.686Z,58.20
2019-02-09T19:18:51.954Z,57.80
2019-02-09T19:21:32.805Z,58.20
2019-02-09T19:24:14.533Z,58.10
2019-02-09T19:26:56.441Z,58.10
2019-02-09T19:29:37.514Z,58.00
2019-02-09T19:32:18.704Z,58.10
2019-02-09T19:34:59.248Z,57.90
2019-02-09T19:37:40.236Z,57.50
2019-02-09T19:40:21.430Z,58.60
2019-02-09T19:43:02.502Z,58.40
2019-02-09T19:45:43.388Z,58.70
2019-02-09T19:48:24.570Z,58.20
2019-02-09T19:51:05.023Z,58.20
2019-02-09T19:53:45.682Z,58.40
2019-02-09T19:56:26.404Z,58.30
2019-02-09T19:59:07.593Z,58.20
2019-02-09T20:01:48.451Z,58.30
2019-02-09T20:04:29.884Z,58.30
2019-02-09T20:07:11.086Z,58.50
2019-02-09T20:09:52.291Z,58.00
2019-02-09T20:12:33.104Z,58.10
2019-02-09T20:15:13.984Z,58.10
2019-02-09T20:17:54.817Z,58.20
2019-02-09T20:20:35.738Z,57.50
2019-02-09T20:23:16.114Z,58.00
2019-02-09T20:25:56.931Z,57.70
2019-02-09T20:28:37.600Z,57.80
2019-02-09T20:31:18.583Z,57.90
2019-02-09T20:33:59.600Z,58.10
2019-02-09T20:36:40.323Z,57.90
2019-02-09T20:39:20.958Z,58.10
2019-02-09T20:42:01.943Z,58.20
2019-02-09T20:44:42.921Z,58.40
2019-02-09T20:47:24.179Z,58.50
2019-02-09T20:50:05.245Z,58.60
2019-02-09T20:52:46.240Z,58.60
2019-02-09T20:55:27.167Z,58.50
2019-02-09T20:58:08.179Z,58.20
2019-02-09T21:00:49.086Z,58.00
2019-02-09T21:03:29.809Z,58.70
2019-02-09T21:06:10.707Z,58.00
2019-02-09T21:08:51.453Z,57.70
2019-02-09T21:11:31.840Z,58.60
2019-02-09T21:14:12.651Z,58.50
2019-02-09T21:16:53.974Z,58.60
2019-02-09T21:19:35.318Z,58.60
2019-02-09T21:22:16.022Z,58.70
2019-02-09T21:24:56.602Z,58.80
2019-02-09T21:27:37.637Z,58.90
2019-02-09T21:30:18.477Z,58.90
2019-02-09T21:32:59.242Z,58.80
2019-02-09T21:35:43.976Z,58.50
2019-02-09T21:38:23.009Z,58.60
2019-02-09T21:41:03.774Z,58.80
2019-02-09T21:43:44.512Z,58.80
2019-02-09T21:46:26.873Z,58.90
2019-02-09T21:49:07.805Z,58.70
2019-02-09T21:51:48.959Z,58.80
2019-02-09T21:54:29.794Z,58.90
2019-02-09T21:57:10.614Z,59.10
2019-02-09T21:59:51.353Z,59.10
2019-02-09T22:02:31.852Z,58.90
2019-02-09T22:05:12.713Z,58.80
2019-02-09T22:07:53.562Z,58.70
2019-02-09T22:10:34.348Z,58.80
2019-02-09T22:13:14.846Z,59.10
2019-02-09T22:15:55.640Z,59.00
2019-02-09T22:18:36.576Z,59.40
2019-02-09T22:21:05.946Z,58.80
2019-02-09T22:23:54.237Z,59.40
2019-02-09T22:26:42.505Z,59.50
2019-02-09T22:29:23.288Z,59.30
2019-02-09T22:32:04.006Z,59.20
2019-02-09T22:34:44.600Z,58.20
2019-02-09T22:37:25.727Z,58.70
2019-02-09T22:40:07.170Z,58.40
2019-02-09T22:42:47.879Z,58.40
2019-02-09T22:45:29.042Z,57.90
2019-02-09T22:48:09.898Z,58.90
2019-02-09T22:50:51.319Z,59.10
2019-02-09T22:53:32.275Z,58.80
2019-02-09T22:56:13.276Z,58.50
2019-02-09T22:58:52.943Z,59.00
2019-02-09T23:01:34.295Z,59.00
2019-02-09T23:04:15.399Z,59.30
2019-02-09T23:06:57.067Z,59.20
2019-02-09T23:09:37.722Z,59.40
2019-02-09T23:12:18.239Z,59.30
2019-02-09T23:14:58.975Z,59.60
2019-02-09T23:17:39.834Z,59.30
2019-02-09T23:20:21.043Z,58.60
2019-02-09T23:23:01.500Z,59.30
2019-02-09T23:28:22.744Z,58.80
2019-02-09T23:33:48.466Z,57.80
2019-02-09T23:36:28.098Z,59.30
2019-02-09T23:39:08.744Z,59.50
2019-02-09T23:41:50.019Z,59.00
2019-02-09T23:44:30.772Z,59.10
2019-02-09T23:47:11.619Z,59.50
2019-02-09T23:49:52.294Z,60.00
2019-02-09T23:52:33.506Z,59.90
2019-02-09T23:55:14.859Z,59.80
2019-02-09T23:57:55.631Z,59.80
